Главная страница
METAR-TAF:

METAR-TAF

Аэропорты :

Lycksele, Швеция

широта: 64-32-51N, долгота: 018-43-03E, высота над уровнем моря: 211 м

Текущие метеонаблюдения

Эта сводка был подготовлена 13 минут назад, в 12:50 UTC
Ветер 5 Узел от южный, изменяющийся между юго-восточный и южный-юго-западный
Температура 14°C
Влажность 58%
Давление 1007 hPa
Видимость 10 км и более
Рассеянная облачность на высоте 2400 фута

METAR: ESNL 161250Z 17005KT 140V210 9999 BKN024 14/06 Q1007

Время: 15:03 (13:03 UTC)


TAF: отсутствует

Метеонаблюдения и прогнозы для более 4000 аэропортов (сводки METAR и TAF).

Имеющиеся станции представлены на карте желтыми и красными точками.

Чтобы увидеть название станции, наведите на нее мышь.

Затем щелкните, чтобы увидеть метеонаблюдения и метеопрогнозы.

Управление картой: чтобы увеличить масштаб, щелкните зеленые кнопки с черным крестиком; чтобы уменьшить масштаб, щелкните зеленую кнопку с тире; для просмотра соседних карт щелкайте зеленые стрелки.


METAR-TAF: